Terminal Aerodrome Forecast
Issued by NWS

Home | Current Version | Previous Version | Text Only | Print | Product List | Glossary On
Versions: 1 2 3 4 5 6 7 8 9 10 11 12 13 14 15 16 17 18 19 20 21
000
FTUS42 KFFC 052336
TAFPDK
TAF
KPDK 052336Z 0600/0624 33010G20KT P6SM OVC012
      TEMPO 0600/0602 -RA OVC008
     FM060200 34010KT P6SM OVC012
     FM061400 01005KT P6SM BKN025
     FM061600 03005KT P6SM BKN040
     FM061800 34005KT P6SM SCT040 SCT250=

USA.gov is the U.S. government's official web portal to all federal, state and local government web resources and services.